createdAt,value
2019-04-05T00:01:23.546Z,99980.34
2019-04-05T00:03:52.287Z,99986.66
2019-04-05T00:06:20.778Z,99991.67
2019-04-05T00:08:49.281Z,99991.16
2019-04-05T00:11:18.064Z,99996.68
2019-04-05T00:13:46.525Z,99991.27
2019-04-05T00:16:14.996Z,99994.17
2019-04-05T00:18:43.500Z,99998.11
2019-04-05T00:21:11.978Z,99996.68
2019-04-05T00:23:40.457Z,99992.43
2019-04-05T00:26:09.202Z,99989.48
2019-04-05T00:28:37.654Z,99986.04
2019-04-05T00:31:06.135Z,99983.44
2019-04-05T00:33:34.586Z,99975.77
2019-04-05T00:36:03.075Z,99978.66
2019-04-05T00:38:31.555Z,99966.38
2019-04-05T00:41:00.045Z,99960.78
2019-04-05T00:43:28.514Z,99966.09
2019-04-05T00:45:57.087Z,99955.16
2019-04-05T00:48:25.579Z,99955.16
2019-04-05T00:50:54.050Z,99951.91
2019-04-05T00:53:22.862Z,99950.05
2019-04-05T00:55:51.405Z,99954.61
2019-04-05T00:58:19.862Z,99966.70
2019-04-05T01:00:48.353Z,99965.54
2019-04-05T01:03:16.835Z,99968.05
2019-04-05T01:05:45.638Z,99970.65
2019-04-05T01:08:14.093Z,99956.09
2019-04-05T01:10:42.594Z,99968.27
2019-04-05T01:13:11.088Z,99982.45
2019-04-05T01:15:41.041Z,99987.50
2019-04-05T01:18:10.070Z,99990.86
2019-04-05T01:20:38.561Z,99987.72
2019-04-05T01:23:07.072Z,99992.21
2019-04-05T01:25:36.569Z,99996.59
2019-04-05T01:28:05.039Z,100002.83
2019-04-05T01:30:33.517Z,100009.16
2019-04-05T01:33:02.299Z,100001.45
2019-04-05T01:35:30.805Z,100006.56
2019-04-05T01:37:59.389Z,99994.05
2019-04-05T01:40:28.553Z,100001.55
2019-04-05T01:42:57.074Z,99996.92
2019-04-05T01:45:25.553Z,99996.81
2019-04-05T01:47:54.030Z,100012.42
2019-04-05T01:50:22.516Z,100008.45
2019-04-05T01:52:50.988Z,99999.80
2019-04-05T01:55:19.480Z,100008.16
2019-04-05T01:57:47.958Z,100003.12
2019-04-05T02:00:16.715Z,100007.69
2019-04-05T02:02:45.203Z,100003.41
2019-04-05T02:05:13.693Z,100006.86
2019-04-05T02:07:42.176Z,100019.97
2019-04-05T02:10:10.713Z,100022.58
2019-04-05T02:12:39.213Z,99923.41
2019-04-05T02:15:07.675Z,100013.22
2019-04-05T02:17:36.218Z,100011.20
2019-04-05T02:20:05.331Z,100017.34
2019-04-05T02:22:33.810Z,100007.19
2019-04-05T02:25:02.560Z,99997.81
2019-04-05T02:27:31.056Z,99994.63
2019-04-05T02:29:59.514Z,99984.75
2019-04-05T02:32:28.001Z,99983.27
2019-04-05T02:34:56.487Z,99977.44
2019-04-05T02:37:24.979Z,99974.48
2019-04-05T02:39:53.467Z,99968.27
2019-04-05T02:42:22.070Z,99967.20
2019-04-05T02:44:50.545Z,99968.05
2019-04-05T02:47:19.282Z,99967.30
2019-04-05T02:49:47.740Z,99965.95
2019-04-05T02:52:16.270Z,99970.64
2019-04-05T02:54:44.928Z,99964.83
2019-04-05T02:57:13.409Z,99975.86
2019-04-05T02:59:41.868Z,99970.75
2019-04-05T03:02:10.330Z,99973.66
2019-04-05T03:04:38.864Z,99972.64
2019-04-05T03:07:07.322Z,99980.00
2019-04-05T03:09:35.890Z,99982.70
2019-04-05T03:12:04.471Z,99994.47
2019-04-05T03:14:33.004Z,99996.22
2019-04-05T03:17:01.494Z,100009.42
2019-04-05T03:19:31.259Z,100012.45
2019-04-05T03:22:03.108Z,100014.64
2019-04-05T03:24:31.640Z,100019.44
2019-04-05T03:27:02.558Z,100015.08
2019-04-05T03:29:31.056Z,100026.41
2019-04-05T03:31:59.589Z,100025.47
2019-04-05T03:34:28.164Z,100022.58
2019-04-05T03:36:56.630Z,100027.88
2019-04-05T03:39:25.170Z,100033.06
2019-04-05T03:41:53.922Z,100028.61
2019-04-05T03:44:23.357Z,100031.71
2019-04-05T03:46:56.980Z,100039.61
2019-04-05T03:49:22.544Z,100043.55
2019-04-05T03:51:51.017Z,100052.06
2019-04-05T03:54:19.466Z,100061.75
2019-04-05T03:56:47.932Z,100051.88
2019-04-05T03:59:16.403Z,100052.51
2019-04-05T04:01:44.863Z,100058.64
2019-04-05T04:04:13.346Z,100062.47
2019-04-05T04:06:41.877Z,100069.50
2019-04-05T04:09:10.357Z,100063.39
2019-04-05T04:11:38.868Z,100059.26
2019-04-05T04:14:07.546Z,100060.11
2019-04-05T04:16:36.247Z,100062.82
2019-04-05T04:19:04.752Z,100062.31
2019-04-05T04:21:43.483Z,100060.85
2019-04-05T04:24:11.995Z,100068.56
2019-04-05T04:26:40.617Z,100059.09
2019-04-05T04:29:09.101Z,100060.23
2019-04-05T04:31:37.588Z,100060.67
2019-04-05T04:34:06.684Z,100067.03
2019-04-05T04:36:35.244Z,100067.43
2019-04-05T04:39:04.970Z,100072.44
2019-04-05T04:41:33.447Z,100075.69
2019-04-05T04:44:02.022Z,100074.45
2019-04-05T04:46:30.479Z,100067.90
2019-04-05T04:48:58.991Z,100077.27
2019-04-05T04:51:27.482Z,100069.36
2019-04-05T04:53:56.063Z,100080.70
2019-04-05T04:56:24.602Z,100076.50
2019-04-05T04:58:53.181Z,100070.87
2019-04-05T05:01:21.764Z,100073.13
2019-04-05T05:03:50.241Z,100088.95
2019-04-05T05:06:18.829Z,100095.88
2019-04-05T05:08:47.319Z,100097.96
2019-04-05T05:11:15.791Z,100102.22
2019-04-05T05:13:44.270Z,100097.86
2019-04-05T05:16:12.756Z,100097.46
2019-04-05T05:18:41.227Z,100099.66
2019-04-05T05:21:09.719Z,100098.09
2019-04-05T05:23:38.209Z,100103.27
2019-04-05T05:26:06.900Z,100112.16
2019-04-05T05:28:35.567Z,100110.69
2019-04-05T05:31:04.073Z,100110.88
2019-04-05T05:33:32.593Z,100117.37
2019-04-05T05:36:01.101Z,100120.30
2019-04-05T05:38:30.098Z,100124.66
2019-04-05T05:40:58.586Z,100111.86
2019-04-05T05:43:27.099Z,100117.04
2019-04-05T05:45:55.586Z,100111.13
2019-04-05T05:48:24.084Z,100118.15
2019-04-05T05:50:52.597Z,100122.24
2019-04-05T05:53:21.120Z,100129.52
2019-04-05T05:55:49.618Z,100130.14
2019-04-05T05:58:18.411Z,100139.72
2019-04-05T06:00:47.153Z,100122.43
2019-04-05T06:03:16.687Z,100117.56
2019-04-05T06:05:45.391Z,100112.66
2019-04-05T06:08:13.875Z,100112.44
2019-04-05T06:10:42.396Z,100103.48
2019-04-05T06:13:11.178Z,100108.27
2019-04-05T06:15:39.957Z,100119.94
2019-04-05T06:18:11.924Z,100125.58
2019-04-05T06:20:38.631Z,100123.16
2019-04-05T06:23:07.403Z,100119.43
2019-04-05T06:25:35.881Z,100123.89
2019-04-05T06:28:04.362Z,100123.48
2019-04-05T06:30:32.941Z,100129.41
2019-04-05T06:33:01.424Z,100134.39
2019-04-05T06:35:29.897Z,100133.90
2019-04-05T06:37:58.364Z,100135.45
2019-04-05T06:40:39.659Z,100127.52
2019-04-05T06:42:57.332Z,100134.40
2019-04-05T06:45:25.813Z,100138.80
2019-04-05T06:47:54.547Z,100144.20
2019-04-05T06:50:23.020Z,100145.45
2019-04-05T06:52:51.520Z,100148.48
2019-04-05T06:55:19.972Z,100149.84
2019-04-05T06:57:48.469Z,100147.36
2019-04-05T07:00:20.050Z,100149.48
2019-04-05T07:02:48.537Z,100146.45
2019-04-05T07:05:17.022Z,100144.66
2019-04-05T07:07:45.499Z,100144.70
2019-04-05T07:10:13.939Z,100144.08
2019-04-05T07:12:42.468Z,100150.73
2019-04-05T07:15:10.911Z,100161.60
2019-04-05T07:17:39.472Z,100162.23
2019-04-05T07:20:08.551Z,100159.73
2019-04-05T07:22:39.453Z,100164.31
2019-04-05T07:25:07.439Z,100172.31
2019-04-05T07:27:35.956Z,100177.62
2019-04-05T07:30:04.869Z,100174.41
2019-04-05T07:32:33.333Z,100177.84
2019-04-05T07:35:02.138Z,100176.50
2019-04-05T07:37:30.624Z,100171.81
2019-04-05T07:39:59.146Z,100174.63
2019-04-05T07:42:27.609Z,100177.85
2019-04-05T07:44:56.087Z,100186.81
2019-04-05T07:47:24.541Z,100183.27
2019-04-05T07:49:53.298Z,100180.05
2019-04-05T07:52:21.775Z,100169.88
2019-04-05T07:54:50.270Z,100178.18
2019-04-05T07:57:18.753Z,100179.97
2019-04-05T07:59:47.247Z,100182.57
2019-04-05T08:02:15.765Z,100187.55
2019-04-05T08:04:44.403Z,100188.56
2019-04-05T08:07:13.476Z,100183.20
2019-04-05T08:09:41.944Z,100182.05
2019-04-05T08:12:10.403Z,100189.14
2019-04-05T08:14:38.986Z,100212.28
2019-04-05T08:17:07.456Z,100200.19
2019-04-05T08:19:35.938Z,100209.38
2019-04-05T08:22:04.487Z,100203.30
2019-04-05T08:24:32.979Z,100210.41
2019-04-05T08:27:01.449Z,100206.45
2019-04-05T08:29:29.930Z,100214.98
2019-04-05T08:31:58.420Z,100209.76
2019-04-05T08:34:26.895Z,100214.88
2019-04-05T08:36:55.369Z,100223.59
2019-04-05T08:39:23.899Z,100217.22
2019-04-05T08:41:52.376Z,100213.04
2019-04-05T08:44:20.860Z,100210.56
2019-04-05T08:46:49.361Z,100200.17
2019-04-05T08:49:17.841Z,100204.86
2019-04-05T08:51:46.315Z,100195.89
2019-04-05T08:54:14.806Z,100198.84
2019-04-05T08:56:43.290Z,100205.30
2019-04-05T08:59:12.085Z,100205.30
2019-04-05T09:01:40.578Z,100199.36
2019-04-05T09:04:09.052Z,100199.76
2019-04-05T09:06:37.583Z,100198.32
2019-04-05T09:09:07.203Z,100198.94
2019-04-05T09:11:35.987Z,100199.23
2019-04-05T09:14:04.599Z,100197.89
2019-04-05T09:16:33.084Z,100199.56
2019-04-05T09:19:01.710Z,100197.35
2019-04-05T09:21:30.234Z,100199.56
2019-04-05T09:23:59.441Z,100195.97
2019-04-05T09:26:28.052Z,100200.77
2019-04-05T09:28:56.519Z,100197.22
2019-04-05T09:31:25.590Z,100193.90
2019-04-05T09:33:54.113Z,100188.58
2019-04-05T09:36:22.656Z,100195.38
2019-04-05T09:38:51.138Z,100192.05
2019-04-05T09:41:19.644Z,100201.92
2019-04-05T09:43:48.131Z,100202.23
2019-04-05T09:46:16.616Z,100188.72
2019-04-05T09:48:45.104Z,100193.63
2019-04-05T09:51:13.698Z,100191.73
2019-04-05T09:53:42.188Z,100202.66
2019-04-05T09:56:10.680Z,100202.11
2019-04-05T09:58:39.177Z,100199.94
2019-04-05T10:01:07.666Z,100190.86
2019-04-05T10:03:36.156Z,100193.58
2019-04-05T10:06:04.912Z,100197.13
2019-04-05T10:08:33.393Z,100200.23
2019-04-05T10:11:02.095Z,100204.95
2019-04-05T10:13:30.574Z,100200.33
2019-04-05T10:15:59.043Z,100203.52
2019-04-05T10:18:27.506Z,100205.68
2019-04-05T10:20:55.972Z,100207.23
2019-04-05T10:23:24.487Z,100217.91
2019-04-05T10:25:52.986Z,100219.06
2019-04-05T10:28:21.453Z,100224.19
2019-04-05T10:30:51.972Z,100226.08
2019-04-05T10:33:20.215Z,100226.59
2019-04-05T10:35:48.724Z,100233.45
2019-04-05T10:38:17.204Z,100230.95
2019-04-05T10:40:45.700Z,100224.46
2019-04-05T10:43:14.238Z,100231.05
2019-04-05T10:45:42.723Z,100227.47
2019-04-05T10:48:11.234Z,100214.56
2019-04-05T10:50:39.738Z,100217.39
2019-04-05T10:53:08.220Z,100223.63
2019-04-05T10:55:36.758Z,100219.86
2019-04-05T10:58:05.440Z,100221.98
2019-04-05T11:00:33.955Z,100218.28
2019-04-05T11:03:02.433Z,100218.02
2019-04-05T11:05:31.010Z,100223.63
2019-04-05T11:07:59.509Z,100227.13
2019-04-05T11:10:28.014Z,100233.10
2019-04-05T11:12:56.484Z,100233.33
2019-04-05T11:15:24.963Z,100234.65
2019-04-05T11:17:53.590Z,100226.09
2019-04-05T11:20:22.817Z,100223.34
2019-04-05T11:22:51.485Z,100232.70
2019-04-05T11:25:20.786Z,100235.20
2019-04-05T11:27:50.045Z,100233.35
2019-04-05T11:30:35.783Z,100228.93
2019-04-05T11:33:04.294Z,100229.77
2019-04-05T11:35:32.796Z,100231.77
2019-04-05T11:38:01.302Z,100236.11
2019-04-05T11:40:29.771Z,100234.45
2019-04-05T11:42:58.239Z,100225.34
2019-04-05T11:45:26.723Z,100219.65
2019-04-05T11:47:55.696Z,100217.55
2019-04-05T11:50:34.526Z,100223.00
2019-04-05T11:52:55.712Z,100227.03
2019-04-05T11:55:24.207Z,100223.58
2019-04-05T11:57:54.763Z,100227.58
2019-04-05T12:00:28.378Z,100225.55
2019-04-05T12:03:00.075Z,100223.81
2019-04-05T12:05:28.868Z,100227.33
2019-04-05T12:08:00.964Z,100228.39
2019-04-05T12:10:27.634Z,100222.74
2019-04-05T12:12:56.100Z,100224.08
2019-04-05T12:15:24.589Z,100224.15
2019-04-05T12:17:53.067Z,100213.98
2019-04-05T12:20:21.541Z,100221.81
2019-04-05T12:22:52.480Z,100224.86
2019-04-05T12:25:20.267Z,100215.80
2019-04-05T12:27:48.734Z,100210.76
2019-04-05T12:30:19.947Z,100200.40
2019-04-05T12:32:48.914Z,100207.17
2019-04-05T12:35:21.389Z,100211.95
2019-04-05T12:37:50.611Z,100215.02
2019-04-05T12:40:18.315Z,100205.59
2019-04-05T12:42:46.809Z,100222.44
2019-04-05T12:45:15.642Z,100219.63
2019-04-05T12:47:45.589Z,100220.36
2019-04-05T12:50:15.324Z,100224.72
2019-04-05T12:52:44.063Z,100229.77
2019-04-05T12:55:12.532Z,100247.20
2019-04-05T12:57:41.344Z,100244.13
2019-04-05T13:00:13.217Z,100243.16
2019-04-05T13:02:40.485Z,100246.23
2019-04-05T13:05:08.972Z,100252.62
2019-04-05T13:07:37.439Z,100249.58
2019-04-05T13:10:06.212Z,100243.97
2019-04-05T13:12:34.683Z,100245.47
2019-04-05T13:15:11.728Z,100250.51
2019-04-05T13:17:33.474Z,100251.19
2019-04-05T13:20:01.958Z,100251.02
2019-04-05T13:22:32.559Z,100250.16
2019-04-05T13:25:00.661Z,100258.17
2019-04-05T13:27:29.439Z,100250.69
2019-04-05T13:29:57.914Z,100251.52
2019-04-05T13:32:26.418Z,100259.30
2019-04-05T13:34:55.852Z,100254.86
2019-04-05T13:37:24.952Z,100255.48
2019-04-05T13:39:53.427Z,100255.80
2019-04-05T13:42:21.893Z,100260.47
2019-04-05T13:44:50.362Z,100260.73
2019-04-05T13:47:19.150Z,100263.90
2019-04-05T13:49:47.655Z,100264.81
2019-04-05T13:52:16.142Z,100265.84
2019-04-05T13:54:44.639Z,100267.22
2019-04-05T13:57:13.091Z,100269.28
2019-04-05T13:59:44.464Z,100265.59
2019-04-05T14:02:11.784Z,100268.05
2019-04-05T14:04:40.244Z,100260.44
2019-04-05T14:07:08.730Z,100263.25
2019-04-05T14:09:38.490Z,100258.47
2019-04-05T14:12:09.663Z,100260.44
2019-04-05T14:14:39.436Z,100259.67
2019-04-05T14:17:07.867Z,100261.45
2019-04-05T14:19:36.432Z,100259.77
2019-04-05T14:22:08.818Z,100256.90
2019-04-05T14:24:35.095Z,100250.51
2019-04-05T14:27:04.033Z,100255.17
2019-04-05T14:29:33.333Z,100247.77
2019-04-05T14:32:19.436Z,100251.95
2019-04-05T14:34:32.489Z,100252.98
2019-04-05T14:37:00.952Z,100246.14
2019-04-05T14:39:29.432Z,100245.94
2019-04-05T14:42:09.147Z,100246.52
2019-04-05T14:44:28.338Z,100245.06
2019-04-05T14:46:58.105Z,100248.91
2019-04-05T14:49:30.258Z,100253.27
2019-04-05T14:52:00.734Z,100249.62
2019-04-05T14:54:30.186Z,100239.80
2019-04-05T14:57:02.422Z,100246.78
2019-04-05T14:59:28.309Z,100237.44
2019-04-05T15:01:56.850Z,100235.84
2019-04-05T15:04:25.327Z,100246.85
2019-04-05T15:06:54.616Z,100238.06
2019-04-05T15:09:25.544Z,100242.72
2019-04-05T15:11:53.399Z,100245.98
2019-04-05T15:14:21.893Z,100241.94
2019-04-05T15:16:50.367Z,100251.01
2019-04-05T15:19:19.157Z,100245.81
2019-04-05T15:21:47.639Z,100242.92
2019-04-05T15:24:17.147Z,100240.38
2019-04-05T15:26:45.686Z,100244.81
2019-04-05T15:29:14.179Z,100245.45
2019-04-05T15:31:42.674Z,100242.38
2019-04-05T15:34:11.134Z,100251.34
2019-04-05T15:36:39.596Z,100241.84
2019-04-05T15:39:08.918Z,100240.78
2019-04-05T15:41:37.559Z,100243.08
2019-04-05T15:44:06.098Z,100246.70
2019-04-05T15:46:34.892Z,100244.41
2019-04-05T15:49:03.382Z,100251.61
2019-04-05T15:51:31.846Z,100247.22
2019-04-05T15:54:01.399Z,100245.58
2019-04-05T15:56:33.355Z,100256.61
2019-04-05T15:59:03.597Z,100260.34
2019-04-05T16:01:32.119Z,100259.27
2019-04-05T16:04:02.820Z,100265.02
2019-04-05T16:06:31.802Z,100262.52
2019-04-05T16:09:00.343Z,100273.84
2019-04-05T16:11:28.832Z,100277.06
2019-04-05T16:13:57.607Z,100266.42
2019-04-05T16:16:26.566Z,100275.58
2019-04-05T16:18:55.067Z,100277.43
2019-04-05T16:21:25.433Z,100273.88
2019-04-05T16:23:53.982Z,100280.21
2019-04-05T16:26:22.446Z,100284.16
2019-04-05T16:28:50.927Z,100280.13
2019-04-05T16:31:19.406Z,100288.05
2019-04-05T16:33:47.914Z,100288.94
2019-04-05T16:36:16.485Z,100293.81
2019-04-05T16:38:44.982Z,100292.59
2019-04-05T16:41:13.494Z,100297.29
2019-04-05T16:43:42.086Z,100301.05
2019-04-05T16:46:11.428Z,100299.16
2019-04-05T16:48:39.927Z,100302.88
2019-04-05T16:51:08.464Z,100300.81
2019-04-05T16:53:38.605Z,100307.64
2019-04-05T16:56:07.137Z,100303.28
2019-04-05T16:58:35.624Z,100298.98
2019-04-05T17:01:04.105Z,100299.34
2019-04-05T17:03:32.902Z,100306.93
2019-04-05T17:06:01.391Z,100298.43
2019-04-05T17:08:29.872Z,100304.58
2019-04-05T17:10:58.352Z,100312.01
2019-04-05T17:13:26.837Z,100319.78
2019-04-05T17:15:55.651Z,100316.49
2019-04-05T17:18:24.186Z,100322.91
2019-04-05T17:20:52.677Z,100323.58
2019-04-05T17:23:21.150Z,100329.06
2019-04-05T17:25:49.647Z,100325.64
2019-04-05T17:28:18.144Z,100328.50
2019-04-05T17:30:47.288Z,100321.66
2019-04-05T17:33:15.763Z,100326.20
2019-04-05T17:35:44.277Z,100331.95
2019-04-05T17:38:12.747Z,100334.82
2019-04-05T17:40:41.590Z,100331.11
2019-04-05T17:43:10.058Z,100331.16
2019-04-05T17:45:38.571Z,100328.53
2019-04-05T17:48:07.350Z,100332.70
2019-04-05T17:50:35.839Z,100336.99
2019-04-05T17:53:12.020Z,100336.23
2019-04-05T17:55:34.660Z,100340.08
2019-04-05T17:58:05.053Z,100339.43
2019-04-05T18:00:33.539Z,100344.64
2019-04-05T18:03:02.067Z,100348.35
2019-04-05T18:05:30.556Z,100340.11
2019-04-05T18:07:59.042Z,100341.95
2019-04-05T18:10:27.520Z,100348.25
2019-04-05T18:12:56.008Z,100340.11
2019-04-05T18:15:24.575Z,100353.17
2019-04-05T18:17:53.412Z,100350.57
2019-04-05T18:20:21.872Z,100353.62
2019-04-05T18:22:50.389Z,100363.06
2019-04-05T18:25:18.916Z,100369.30
2019-04-05T18:27:47.392Z,100367.32
2019-04-05T18:30:16.081Z,100369.19
2019-04-05T18:32:44.582Z,100372.98
2019-04-05T18:35:13.358Z,100366.72
2019-04-05T18:37:41.946Z,100379.03
2019-04-05T18:40:11.034Z,100380.48
2019-04-05T18:42:39.524Z,100386.02
2019-04-05T18:45:07.988Z,100384.99
2019-04-05T18:47:36.486Z,100385.81
2019-04-05T18:50:05.364Z,100392.20
2019-04-05T18:52:33.852Z,100391.75
2019-04-05T18:55:02.702Z,100394.88
2019-04-05T18:57:31.459Z,100390.39
2019-04-05T18:59:59.978Z,100223.20
2019-04-05T19:02:28.460Z,100393.02
2019-04-05T19:04:56.965Z,100393.45
2019-04-05T19:07:25.484Z,100394.07
2019-04-05T19:09:53.977Z,100391.55
2019-04-05T19:12:22.483Z,100392.62
2019-04-05T19:14:51.477Z,100402.73
2019-04-05T19:17:24.129Z,100402.27
2019-04-05T19:19:50.190Z,100405.83
2019-04-05T19:22:18.670Z,100410.25
2019-04-05T19:24:47.176Z,100404.98
2019-04-05T19:27:15.642Z,100403.95
2019-04-05T19:29:44.114Z,100404.83
2019-04-05T19:49:44.463Z,100436.25
2019-04-05T19:52:12.953Z,100431.89
2019-04-05T19:54:41.436Z,100434.83
2019-04-05T19:57:09.976Z,100441.83
2019-04-05T19:59:38.478Z,100440.83
2019-04-05T20:02:07.104Z,100437.49
2019-04-05T20:04:35.920Z,100440.94
2019-04-05T20:07:04.728Z,100444.89
2019-04-05T20:09:33.228Z,100348.86
2019-04-05T20:12:01.701Z,100444.04
2019-04-05T20:14:30.204Z,100440.64
2019-04-05T20:16:58.715Z,100444.09
2019-04-05T20:19:27.235Z,100447.21
2019-04-05T20:21:55.919Z,100447.03
2019-04-05T20:24:25.208Z,100444.32
2019-04-05T20:26:53.707Z,100450.99
2019-04-05T20:29:22.287Z,100455.90
2019-04-05T20:31:50.827Z,100449.92
2019-04-05T20:34:19.313Z,100451.50
2019-04-05T20:36:47.838Z,100450.14
2019-04-05T20:39:16.387Z,100446.81
2019-04-05T20:41:45.125Z,100455.79
2019-04-05T20:44:13.622Z,100461.83
2019-04-05T20:46:42.116Z,100469.47
2019-04-05T20:49:12.022Z,100463.94
2019-04-05T20:51:40.560Z,100463.53
2019-04-05T20:54:09.025Z,100468.95
2019-04-05T20:56:37.561Z,100473.59
2019-04-05T20:59:06.074Z,100479.62
2019-04-05T21:01:34.613Z,100478.45
2019-04-05T21:04:03.060Z,100463.87
2019-04-05T21:06:31.557Z,100464.63
2019-04-05T21:09:00.404Z,100460.91
2019-04-05T21:11:28.874Z,100461.52
2019-04-05T21:13:57.388Z,100462.27
2019-04-05T21:16:26.154Z,100467.90
2019-04-05T21:18:54.634Z,100470.20
2019-04-05T21:21:23.472Z,100474.02
2019-04-05T21:23:51.960Z,100468.89
2019-04-05T21:26:20.460Z,100473.60
2019-04-05T21:28:48.961Z,100477.67
2019-04-05T21:31:17.472Z,100486.22
2019-04-05T21:33:46.078Z,100481.00
2019-04-05T21:36:14.578Z,100478.11
2019-04-05T21:38:43.074Z,100474.66
2019-04-05T21:41:13.193Z,100482.88
2019-04-05T21:43:41.847Z,100478.52
2019-04-05T21:46:10.349Z,100475.47
2019-04-05T21:48:38.883Z,100477.16
2019-04-05T21:51:07.386Z,100485.48
2019-04-05T21:53:36.007Z,100491.75
2019-04-05T21:56:04.575Z,100491.17
2019-04-05T21:58:33.086Z,100492.42
2019-04-05T22:01:05.174Z,100508.00
2019-04-05T22:03:33.698Z,100512.14
2019-04-05T22:06:02.206Z,100511.00
2019-04-05T22:08:30.719Z,100507.44
2019-04-05T22:10:59.181Z,100507.11
2019-04-05T22:13:27.700Z,100506.19
2019-04-05T22:15:56.177Z,100518.70
2019-04-05T22:18:24.678Z,100521.95
2019-04-05T22:20:53.423Z,100513.16
2019-04-05T22:23:22.214Z,100515.06
2019-04-05T22:25:50.753Z,100513.38
2019-04-05T22:28:19.566Z,100516.09
2019-04-05T22:30:48.078Z,100505.64
2019-04-05T22:33:16.574Z,100512.96
2019-04-05T22:35:45.085Z,100519.41
2019-04-05T22:38:13.554Z,100512.73
2019-04-05T22:40:42.060Z,100513.34
2019-04-05T22:43:10.550Z,100507.92
2019-04-05T22:45:39.358Z,100511.03
2019-04-05T22:48:07.823Z,100512.79
2019-04-05T22:50:36.357Z,100513.84
2019-04-05T22:53:04.850Z,100518.20
2019-04-05T22:55:33.331Z,100517.35
2019-04-05T22:58:02.086Z,100509.20
2019-04-05T23:00:30.581Z,100509.93
2019-04-05T23:02:59.447Z,100513.48
2019-04-05T23:05:27.929Z,100514.18
2019-04-05T23:07:56.499Z,100523.55
2019-04-05T23:10:25.024Z,100528.89
2019-04-05T23:12:53.506Z,100522.17
2019-04-05T23:15:22.029Z,100509.34
2019-04-05T23:17:50.539Z,100515.28
2019-04-05T23:20:19.359Z,100505.37
2019-04-05T23:22:47.893Z,100494.53
2019-04-05T23:25:21.747Z,100499.74
2019-04-05T23:27:46.602Z,100504.20
2019-04-05T23:30:15.099Z,100504.80
2019-04-05T23:32:43.601Z,100491.14
2019-04-05T23:35:12.092Z,100475.82
2019-04-05T23:37:40.572Z,100481.00
2019-04-05T23:40:09.168Z,100486.42
2019-04-05T23:42:37.990Z,100491.09
2019-04-05T23:45:06.552Z,100486.91
2019-04-05T23:47:35.035Z,100490.64
2019-04-05T23:50:03.548Z,100496.48
2019-04-05T23:52:32.037Z,100506.98
2019-04-05T23:55:00.510Z,100511.65
2019-04-05T23:57:29.295Z,100514.56
2019-04-05T23:59:57.755Z,100516.64
